Columbine, New Mexico
Current Conditions -  °F | °C
As of 5:15 PM on Monday 20 Oct 2014 (Local Time) from KSKX Reporting Station
Overcast Overcast  
Wind Chill: 61°   Ceiling: 8500
Heat Index: 61°   Visibility: 10mi
Dew Point: 37°   Wind: 10mph
Humidity: 42%   Direction: 10°N
Pressure: 30.21"   Gusts: NA
Location:  36.7571°N, 105.477°W
Report Text: KSKX 202315Z AUTO 01009KT 10SM FEW060 OVC085 16/03 A3021 RMK AO1
Loading
Personal Weather Stations






























Interactive Weather Map
Tropical Storm Tracking
New forecast layout! Learn more

10-Day Weather Forecast

Advertisements
Track Severe Weather on mobile